sensor_id;sensor_type;location;lat;lon;timestamp;temperature;humidity
20066;DHT22;10193;48.884;9.182;2024-03-23T00:53:37;12.70;63.70
20066;DHT22;10193;48.884;9.182;2024-03-23T00:56:04;12.70;63.80
20066;DHT22;10193;48.884;9.182;2024-03-23T00:58:30;12.70;63.90
20066;DHT22;10193;48.884;9.182;2024-03-23T01:00:57;12.70;63.90
20066;DHT22;10193;48.884;9.182;2024-03-23T01:03:22;12.60;63.80
20066;DHT22;10193;48.884;9.182;2024-03-23T01:05:49;12.60;63.90
20066;DHT22;10193;48.884;9.182;2024-03-23T01:08:15;12.60;63.90
20066;DHT22;10193;48.884;9.182;2024-03-23T01:10:43;12.50;64.70
20066;DHT22;10193;48.884;9.182;2024-03-23T01:13:08;12.50;64.00
20066;DHT22;10193;48.884;9.182;2024-03-23T01:15:35;12.50;64.30
20066;DHT22;10193;48.884;9.182;2024-03-23T01:18:01;12.50;64.60
20066;DHT22;10193;48.884;9.182;2024-03-23T01:20:27;12.50;64.80
20066;DHT22;10193;48.884;9.182;2024-03-23T01:22:53;12.50;65.00
20066;DHT22;10193;48.884;9.182;2024-03-23T01:25:20;12.50;65.20
20066;DHT22;10193;48.884;9.182;2024-03-23T01:27:47;12.60;65.30
20066;DHT22;10193;48.884;9.182;2024-03-23T01:30:13;12.60;65.20
20066;DHT22;10193;48.884;9.182;2024-03-23T01:32:39;12.60;65.20
20066;DHT22;10193;48.884;9.182;2024-03-23T01:35:06;12.70;65.30
20066;DHT22;10193;48.884;9.182;2024-03-23T01:37:32;12.70;65.10
20066;DHT22;10193;48.884;9.182;2024-03-23T01:39:58;12.70;64.80
20066;DHT22;10193;48.884;9.182;2024-03-23T01:42:24;12.70;64.70
20066;DHT22;10193;48.884;9.182;2024-03-23T01:44:52;12.70;64.60
20066;DHT22;10193;48.884;9.182;2024-03-23T01:47:18;12.70;64.40
20066;DHT22;10193;48.884;9.182;2024-03-23T01:49:44;12.70;64.60
20066;DHT22;10193;48.884;9.182;2024-03-23T01:52:10;12.70;64.60
20066;DHT22;10193;48.884;9.182;2024-03-23T01:54:37;12.60;64.50
20066;DHT22;10193;48.884;9.182;2024-03-23T01:57:04;12.60;64.60
20066;DHT22;10193;48.884;9.182;2024-03-23T01:59:31;12.60;64.70
20066;DHT22;10193;48.884;9.182;2024-03-23T02:01:58;12.60;65.10
20066;DHT22;10193;48.884;9.182;2024-03-23T02:04:24;12.60;65.70
20066;DHT22;10193;48.884;9.182;2024-03-23T02:06:50;12.60;66.20
20066;DHT22;10193;48.884;9.182;2024-03-23T02:09:17;12.70;66.60
20066;DHT22;10193;48.884;9.182;2024-03-23T02:11:42;12.80;66.90
20066;DHT22;10193;48.884;9.182;2024-03-23T02:14:09;12.90;67.00
20066;DHT22;10193;48.884;9.182;2024-03-23T02:16:35;13.00;66.90
20066;DHT22;10193;48.884;9.182;2024-03-23T02:19:02;13.20;67.70
20066;DHT22;10193;48.884;9.182;2024-03-23T02:21:28;13.30;66.80
20066;DHT22;10193;48.884;9.182;2024-03-23T02:23:58;13.40;66.60
20066;DHT22;10193;48.884;9.182;2024-03-23T02:26:24;13.50;66.40
20066;DHT22;10193;48.884;9.182;2024-03-23T02:28:51;13.60;66.30
20066;DHT22;10193;48.884;9.182;2024-03-23T02:31:16;13.70;66.20
20066;DHT22;10193;48.884;9.182;2024-03-23T02:33:43;13.70;66.00
20066;DHT22;10193;48.884;9.182;2024-03-23T02:36:09;13.80;65.90
20066;DHT22;10193;48.884;9.182;2024-03-23T02:38:35;13.80;65.90
20066;DHT22;10193;48.884;9.182;2024-03-23T02:41:04;13.90;65.90
20066;DHT22;10193;48.884;9.182;2024-03-23T02:43:31;13.90;65.70
20066;DHT22;10193;48.884;9.182;2024-03-23T02:45:57;13.90;65.60
20066;DHT22;10193;48.884;9.182;2024-03-23T02:48:23;14.00;65.70
20066;DHT22;10193;48.884;9.182;2024-03-23T02:50:49;14.00;65.60
20066;DHT22;10193;48.884;9.182;2024-03-23T02:53:16;14.00;65.60
20066;DHT22;10193;48.884;9.182;2024-03-23T02:55:42;14.00;65.60
20066;DHT22;10193;48.884;9.182;2024-03-23T02:58:27;14.10;66.40
20066;DHT22;10193;48.884;9.182;2024-03-23T03:00:53;14.10;65.10
20066;DHT22;10193;48.884;9.182;2024-03-23T03:03:19;14.10;65.40
20066;DHT22;10193;48.884;9.182;2024-03-23T03:05:45;14.10;65.20
20066;DHT22;10193;48.884;9.182;2024-03-23T03:08:12;14.20;65.10
20066;DHT22;10193;48.884;9.182;2024-03-23T03:10:37;14.20;65.00
20066;DHT22;10193;48.884;9.182;2024-03-23T03:13:04;14.10;64.80
20066;DHT22;10193;48.884;9.182;2024-03-23T03:15:31;14.10;64.70
20066;DHT22;10193;48.884;9.182;2024-03-23T03:17:58;14.10;64.50
20066;DHT22;10193;48.884;9.182;2024-03-23T03:20:23;14.00;64.30
20066;DHT22;10193;48.884;9.182;2024-03-23T03:22:50;13.90;64.30
20066;DHT22;10193;48.884;9.182;2024-03-23T03:25:16;13.90;64.20
20066;DHT22;10193;48.884;9.182;2024-03-23T03:27:42;13.80;64.10
20066;DHT22;10193;48.884;9.182;2024-03-23T03:30:09;13.80;64.20
20066;DHT22;10193;48.884;9.182;2024-03-23T03:32:37;13.70;64.20
20066;DHT22;10193;48.884;9.182;2024-03-23T03:35:03;13.60;64.20
20066;DHT22;10193;48.884;9.182;2024-03-23T03:37:30;13.60;64.30
20066;DHT22;10193;48.884;9.182;2024-03-23T03:39:56;13.50;64.40
20066;DHT22;10193;48.884;9.182;2024-03-23T03:42:22;13.40;64.40
20066;DHT22;10193;48.884;9.182;2024-03-23T03:44:48;13.30;64.30
20066;DHT22;10193;48.884;9.182;2024-03-23T03:47:15;13.30;64.50
20066;DHT22;10193;48.884;9.182;2024-03-23T03:49:42;13.30;64.70
20066;DHT22;10193;48.884;9.182;2024-03-23T03:52:08;13.20;64.70
20066;DHT22;10193;48.884;9.182;2024-03-23T03:54:34;13.10;64.80
20066;DHT22;10193;48.884;9.182;2024-03-23T03:57:01;13.10;65.00
20066;DHT22;10193;48.884;9.182;2024-03-23T03:59:27;13.10;65.10
20066;DHT22;10193;48.884;9.182;2024-03-23T04:01:54;13.00;65.10
20066;DHT22;10193;48.884;9.182;2024-03-23T04:04:19;13.00;65.30
20066;DHT22;10193;48.884;9.182;2024-03-23T04:06:49;13.00;65.40
20066;DHT22;10193;48.884;9.182;2024-03-23T04:09:14;13.00;65.50
20066;DHT22;10193;48.884;9.182;2024-03-23T04:11:41;13.00;65.70
20066;DHT22;10193;48.884;9.182;2024-03-23T04:14:07;12.90;65.70
20066;DHT22;10193;48.884;9.182;2024-03-23T04:16:34;12.90;65.80
20066;DHT22;10193;48.884;9.182;2024-03-23T04:19:01;12.90;66.00
20066;DHT22;10193;48.884;9.182;2024-03-23T04:21:28;12.90;66.00
20066;DHT22;10193;48.884;9.182;2024-03-23T04:23:55;13.00;66.20
20066;DHT22;10193;48.884;9.182;2024-03-23T04:26:21;13.00;66.30
20066;DHT22;10193;48.884;9.182;2024-03-23T04:28:47;13.00;66.20
20066;DHT22;10193;48.884;9.182;2024-03-23T04:31:14;13.00;66.20
20066;DHT22;10193;48.884;9.182;2024-03-23T04:33:39;12.90;66.00
20066;DHT22;10193;48.884;9.182;2024-03-23T04:36:06;12.90;66.20
20066;DHT22;10193;48.884;9.182;2024-03-23T04:38:32;12.80;66.60
20066;DHT22;10193;48.884;9.182;2024-03-23T04:41:00;12.80;67.10
20066;DHT22;10193;48.884;9.182;2024-03-23T04:43:27;12.70;67.40
20066;DHT22;10193;48.884;9.182;2024-03-23T04:45:54;12.70;68.10
20066;DHT22;10193;48.884;9.182;2024-03-23T04:48:21;12.60;68.50
20066;DHT22;10193;48.884;9.182;2024-03-23T04:50:48;12.50;68.90
20066;DHT22;10193;48.884;9.182;2024-03-23T04:53:15;12.50;69.50
20066;DHT22;10193;48.884;9.182;2024-03-23T04:55:42;12.40;69.80
20066;DHT22;10193;48.884;9.182;2024-03-23T04:58:10;12.40;70.40
20066;DHT22;10193;48.884;9.182;2024-03-23T05:00:36;12.40;70.80
20066;DHT22;10193;48.884;9.182;2024-03-23T05:03:03;12.30;71.00
20066;DHT22;10193;48.884;9.182;2024-03-23T05:05:29;12.30;71.30
20066;DHT22;10193;48.884;9.182;2024-03-23T05:07:56;12.30;71.60
20066;DHT22;10193;48.884;9.182;2024-03-23T05:10:22;12.30;71.70
20066;DHT22;10193;48.884;9.182;2024-03-23T05:12:48;12.30;71.90
20066;DHT22;10193;48.884;9.182;2024-03-23T05:15:15;12.30;72.10
20066;DHT22;10193;48.884;9.182;2024-03-23T05:17:42;12.30;72.30
20066;DHT22;10193;48.884;9.182;2024-03-23T05:20:09;12.30;72.50
20066;DHT22;10193;48.884;9.182;2024-03-23T05:22:35;12.30;72.70
20066;DHT22;10193;48.884;9.182;2024-03-23T05:25:02;12.30;72.80
20066;DHT22;10193;48.884;9.182;2024-03-23T05:27:31;12.30;73.00
20066;DHT22;10193;48.884;9.182;2024-03-23T05:29:57;12.30;73.10
20066;DHT22;10193;48.884;9.182;2024-03-23T05:32:25;12.30;73.20
20066;DHT22;10193;48.884;9.182;2024-03-23T05:34:51;12.30;73.20
20066;DHT22;10193;48.884;9.182;2024-03-23T05:37:21;12.30;73.20
20066;DHT22;10193;48.884;9.182;2024-03-23T05:39:48;12.30;73.30
20066;DHT22;10193;48.884;9.182;2024-03-23T05:42:15;12.20;73.30
20066;DHT22;10193;48.884;9.182;2024-03-23T05:44:43;12.20;73.30
20066;DHT22;10193;48.884;9.182;2024-03-23T05:47:09;12.20;73.30
20066;DHT22;10193;48.884;9.182;2024-03-23T05:49:37;12.10;73.10
20066;DHT22;10193;48.884;9.182;2024-03-23T05:52:03;12.10;73.00
20066;DHT22;10193;48.884;9.182;2024-03-23T05:54:30;12.10;73.00
20066;DHT22;10193;48.884;9.182;2024-03-23T05:56:55;12.00;73.10
20066;DHT22;10193;48.884;9.182;2024-03-23T05:59:22;11.90;73.00
20066;DHT22;10193;48.884;9.182;2024-03-23T06:01:48;11.90;73.10
20066;DHT22;10193;48.884;9.182;2024-03-23T06:04:15;11.80;73.10
20066;DHT22;10193;48.884;9.182;2024-03-23T06:06:42;11.80;73.20
20066;DHT22;10193;48.884;9.182;2024-03-23T06:09:08;11.80;73.30
20066;DHT22;10193;48.884;9.182;2024-03-23T06:11:34;11.70;73.50
20066;DHT22;10193;48.884;9.182;2024-03-23T06:14:01;11.70;73.70
20066;DHT22;10193;48.884;9.182;2024-03-23T06:16:27;11.60;73.90
20066;DHT22;10193;48.884;9.182;2024-03-23T06:18:53;11.60;74.00
20066;DHT22;10193;48.884;9.182;2024-03-23T06:21:20;11.60;74.30
20066;DHT22;10193;48.884;9.182;2024-03-23T06:23:47;11.60;74.50
20066;DHT22;10193;48.884;9.182;2024-03-23T06:26:16;11.70;74.70
20066;DHT22;10193;48.884;9.182;2024-03-23T06:28:42;11.60;74.50
20066;DHT22;10193;48.884;9.182;2024-03-23T06:31:09;11.60;74.60
20066;DHT22;10193;48.884;9.182;2024-03-23T06:33:35;11.50;74.50
20066;DHT22;10193;48.884;9.182;2024-03-23T06:36:02;11.50;74.40
20066;DHT22;10193;48.884;9.182;2024-03-23T06:38:28;11.50;74.20
20066;DHT22;10193;48.884;9.182;2024-03-23T06:40:56;11.50;74.20
20066;DHT22;10193;48.884;9.182;2024-03-23T06:43:22;11.50;74.10
20066;DHT22;10193;48.884;9.182;2024-03-23T06:45:52;11.50;74.10
20066;DHT22;10193;48.884;9.182;2024-03-23T06:48:18;11.50;74.00
20066;DHT22;10193;48.884;9.182;2024-03-23T06:50:45;11.50;74.00
20066;DHT22;10193;48.884;9.182;2024-03-23T06:53:11;11.50;74.00
20066;DHT22;10193;48.884;9.182;2024-03-23T06:55:38;11.40;74.00
20066;DHT22;10193;48.884;9.182;2024-03-23T06:58:05;11.40;74.00
20066;DHT22;10193;48.884;9.182;2024-03-23T07:00:32;11.40;73.90
20066;DHT22;10193;48.884;9.182;2024-03-23T07:02:58;11.40;73.90
20066;DHT22;10193;48.884;9.182;2024-03-23T07:05:24;11.40;73.90
20066;DHT22;10193;48.884;9.182;2024-03-23T07:07:50;11.40;73.90
20066;DHT22;10193;48.884;9.182;2024-03-23T07:10:17;11.40;73.90
20066;DHT22;10193;48.884;9.182;2024-03-23T07:12:43;11.40;74.10
20066;DHT22;10193;48.884;9.182;2024-03-23T07:15:11;11.40;74.30
20066;DHT22;10193;48.884;9.182;2024-03-23T07:17:37;11.40;74.50
20066;DHT22;10193;48.884;9.182;2024-03-23T07:20:04;11.40;74.80
20066;DHT22;10193;48.884;9.182;2024-03-23T07:22:30;11.40;74.80
20066;DHT22;10193;48.884;9.182;2024-03-23T07:24:59;11.50;74.80
20066;DHT22;10193;48.884;9.182;2024-03-23T07:27:25;11.50;74.60
20066;DHT22;10193;48.884;9.182;2024-03-23T07:29:52;11.60;74.50
20066;DHT22;10193;48.884;9.182;2024-03-23T07:32:19;11.60;73.90
20066;DHT22;10193;48.884;9.182;2024-03-23T07:34:45;11.60;74.70
20066;DHT22;10193;48.884;9.182;2024-03-23T07:37:11;11.60;73.60
20066;DHT22;10193;48.884;9.182;2024-03-23T07:39:38;11.60;73.50
20066;DHT22;10193;48.884;9.182;2024-03-23T07:42:05;11.60;73.30
20066;DHT22;10193;48.884;9.182;2024-03-23T07:44:31;11.60;73.30
20066;DHT22;10193;48.884;9.182;2024-03-23T07:47:00;11.60;73.10
20066;DHT22;10193;48.884;9.182;2024-03-23T07:49:27;11.50;73.10
20066;DHT22;10193;48.884;9.182;2024-03-23T07:51:53;11.50;73.30
20066;DHT22;10193;48.884;9.182;2024-03-23T07:54:19;11.50;73.10
20066;DHT22;10193;48.884;9.182;2024-03-23T07:56:46;11.40;73.10
20066;DHT22;10193;48.884;9.182;2024-03-23T07:59:12;11.40;73.30
20066;DHT22;10193;48.884;9.182;2024-03-23T08:01:38;11.30;73.00
20066;DHT22;10193;48.884;9.182;2024-03-23T08:04:05;11.30;73.00
20066;DHT22;10193;48.884;9.182;2024-03-23T08:06:33;11.30;72.60
20066;DHT22;10193;48.884;9.182;2024-03-23T08:08:59;11.20;72.20
20066;DHT22;10193;48.884;9.182;2024-03-23T08:11:26;11.10;72.40
20066;DHT22;10193;48.884;9.182;2024-03-23T08:13:52;11.10;72.80
20066;DHT22;10193;48.884;9.182;2024-03-23T08:16:18;11.00;73.60
20066;DHT22;10193;48.884;9.182;2024-03-23T08:18:44;11.00;73.70
20066;DHT22;10193;48.884;9.182;2024-03-23T08:21:11;11.00;73.30
20066;DHT22;10193;48.884;9.182;2024-03-23T08:23:38;10.90;72.70
20066;DHT22;10193;48.884;9.182;2024-03-23T08:26:06;10.90;72.40
20066;DHT22;10193;48.884;9.182;2024-03-23T08:28:32;10.80;72.20
20066;DHT22;10193;48.884;9.182;2024-03-23T08:31:01;10.70;71.80
20066;DHT22;10193;48.884;9.182;2024-03-23T08:33:28;10.60;72.20
20066;DHT22;10193;48.884;9.182;2024-03-23T08:35:56;10.60;72.60
20066;DHT22;10193;48.884;9.182;2024-03-23T08:38:22;10.60;73.00
20066;DHT22;10193;48.884;9.182;2024-03-23T08:40:57;10.50;73.70
20066;DHT22;10193;48.884;9.182;2024-03-23T08:43:23;10.50;74.00
20066;DHT22;10193;48.884;9.182;2024-03-23T08:45:50;10.50;74.10
20066;DHT22;10193;48.884;9.182;2024-03-23T08:48:16;10.60;73.80
20066;DHT22;10193;48.884;9.182;2024-03-23T08:50:43;10.60;74.00
20066;DHT22;10193;48.884;9.182;2024-03-23T08:53:09;10.60;73.90
20066;DHT22;10193;48.884;9.182;2024-03-23T08:55:35;10.70;74.20
20066;DHT22;10193;48.884;9.182;2024-03-23T08:58:02;10.70;74.50
20066;DHT22;10193;48.884;9.182;2024-03-23T09:00:30;10.70;74.50
20066;DHT22;10193;48.884;9.182;2024-03-23T09:02:55;10.80;74.20
20066;DHT22;10193;48.884;9.182;2024-03-23T09:05:23;10.80;74.30
20066;DHT22;10193;48.884;9.182;2024-03-23T09:07:49;10.90;74.60
20066;DHT22;10193;48.884;9.182;2024-03-23T09:10:16;10.90;74.80
20066;DHT22;10193;48.884;9.182;2024-03-23T09:12:42;11.00;75.10
20066;DHT22;10193;48.884;9.182;2024-03-23T09:15:10;11.10;74.40
20066;DHT22;10193;48.884;9.182;2024-03-23T09:17:35;11.10;73.50
20066;DHT22;10193;48.884;9.182;2024-03-23T09:20:02;11.20;73.70
20066;DHT22;10193;48.884;9.182;2024-03-23T09:22:30;11.20;73.70
20066;DHT22;10193;48.884;9.182;2024-03-23T09:24:56;11.20;72.20
20066;DHT22;10193;48.884;9.182;2024-03-23T09:27:22;11.20;71.10
20066;DHT22;10193;48.884;9.182;2024-03-23T09:29:48;11.20;70.90
20066;DHT22;10193;48.884;9.182;2024-03-23T09:32:16;11.10;71.30
20066;DHT22;10193;48.884;9.182;2024-03-23T09:34:43;11.10;71.60
20066;DHT22;10193;48.884;9.182;2024-03-23T09:37:09;11.10;71.90
20066;DHT22;10193;48.884;9.182;2024-03-23T09:39:35;11.10;72.00
20066;DHT22;10193;48.884;9.182;2024-03-23T09:42:01;11.10;72.50
20066;DHT22;10193;48.884;9.182;2024-03-23T09:44:28;11.10;72.80
20066;DHT22;10193;48.884;9.182;2024-03-23T09:46:55;11.20;73.30
20066;DHT22;10193;48.884;9.182;2024-03-23T09:49:23;11.20;73.60
20066;DHT22;10193;48.884;9.182;2024-03-23T09:51:50;11.30;72.80
20066;DHT22;10193;48.884;9.182;2024-03-23T09:54:17;11.30;72.40
20066;DHT22;10193;48.884;9.182;2024-03-23T09:56:43;11.40;72.20
20066;DHT22;10193;48.884;9.182;2024-03-23T09:59:10;11.40;72.00
20066;DHT22;10193;48.884;9.182;2024-03-23T10:01:36;11.50;72.30
20066;DHT22;10193;48.884;9.182;2024-03-23T10:04:03;11.50;71.60
20066;DHT22;10193;48.884;9.182;2024-03-23T10:06:30;11.60;71.90
20066;DHT22;10193;48.884;9.182;2024-03-23T10:08:57;11.70;71.30
20066;DHT22;10193;48.884;9.182;2024-03-23T10:11:22;11.70;71.10
20066;DHT22;10193;48.884;9.182;2024-03-23T10:13:51;11.70;70.90
20066;DHT22;10193;48.884;9.182;2024-03-23T10:16:25;11.80;70.90
20066;DHT22;10193;48.884;9.182;2024-03-23T10:18:52;11.80;70.50
20066;DHT22;10193;48.884;9.182;2024-03-23T10:21:18;11.80;70.20
20066;DHT22;10193;48.884;9.182;2024-03-23T10:23:46;11.90;69.90
20066;DHT22;10193;48.884;9.182;2024-03-23T10:26:17;11.90;69.60
20066;DHT22;10193;48.884;9.182;2024-03-23T10:29:01;11.80;69.30
20066;DHT22;10193;48.884;9.182;2024-03-23T10:31:33;11.80;67.70
20066;DHT22;10193;48.884;9.182;2024-03-23T10:34:02;11.80;69.80
20066;DHT22;10193;48.884;9.182;2024-03-23T10:36:30;11.80;68.50
20066;DHT22;10193;48.884;9.182;2024-03-23T10:38:57;11.70;67.90
20066;DHT22;10193;48.884;9.182;2024-03-23T10:41:26;11.70;67.60
20066;DHT22;10193;48.884;9.182;2024-03-23T10:43:53;11.50;67.40
20066;DHT22;10193;48.884;9.182;2024-03-23T10:46:21;11.40;67.00
20066;DHT22;10193;48.884;9.182;2024-03-23T10:48:47;11.30;66.60
20066;DHT22;10193;48.884;9.182;2024-03-23T10:51:18;11.20;66.30
20066;DHT22;10193;48.884;9.182;2024-03-23T10:53:45;11.10;64.80
20066;DHT22;10193;48.884;9.182;2024-03-23T10:56:15;10.90;63.40
20066;DHT22;10193;48.884;9.182;2024-03-23T10:58:44;10.60;63.00
20066;DHT22;10193;48.884;9.182;2024-03-23T11:01:12;10.30;63.20
20066;DHT22;10193;48.884;9.182;2024-03-23T11:03:39;9.90;64.80
20066;DHT22;10193;48.884;9.182;2024-03-23T11:06:11;9.60;65.80
20066;DHT22;10193;48.884;9.182;2024-03-23T11:08:57;9.30;66.70
20066;DHT22;10193;48.884;9.182;2024-03-23T11:11:24;9.00;67.70
20066;DHT22;10193;48.884;9.182;2024-03-23T11:13:53;8.80;68.40
20066;DHT22;10193;48.884;9.182;2024-03-23T11:16:23;8.70;70.00
20066;DHT22;10193;48.884;9.182;2024-03-23T11:18:50;8.60;71.30
20066;DHT22;10193;48.884;9.182;2024-03-23T11:24:20;8.50;72.90
20066;DHT22;10193;48.884;9.182;2024-03-23T11:26:48;8.50;73.70
20066;DHT22;10193;48.884;9.182;2024-03-23T11:29:16;8.60;74.50
20066;DHT22;10193;48.884;9.182;2024-03-23T11:31:46;8.60;74.90
20066;DHT22;10193;48.884;9.182;2024-03-23T11:34:13;8.70;75.30
20066;DHT22;10193;48.884;9.182;2024-03-23T11:36:38;8.80;75.50
20066;DHT22;10193;48.884;9.182;2024-03-23T11:39:12;8.90;75.80
20066;DHT22;10193;48.884;9.182;2024-03-23T11:41:46;9.00;75.80
20066;DHT22;10193;48.884;9.182;2024-03-23T11:44:18;9.00;75.80
20066;DHT22;10193;48.884;9.182;2024-03-23T11:46:43;9.10;75.90
20066;DHT22;10193;48.884;9.182;2024-03-23T11:49:21;9.20;76.00
20066;DHT22;10193;48.884;9.182;2024-03-23T11:51:47;9.30;75.90
20066;DHT22;10193;48.884;9.182;2024-03-23T11:54:14;9.40;76.10
20066;DHT22;10193;48.884;9.182;2024-03-23T11:56:40;9.40;76.20
20066;DHT22;10193;48.884;9.182;2024-03-23T11:59:07;9.50;76.30
20066;DHT22;10193;48.884;9.182;2024-03-23T12:01:34;9.60;76.40
20066;DHT22;10193;48.884;9.182;2024-03-23T12:04:01;9.70;76.30
20066;DHT22;10193;48.884;9.182;2024-03-23T12:06:27;9.70;76.40
20066;DHT22;10193;48.884;9.182;2024-03-23T12:09:05;9.80;76.40
20066;DHT22;10193;48.884;9.182;2024-03-23T12:11:32;9.90;75.90
20066;DHT22;10193;48.884;9.182;2024-03-23T12:14:00;10.00;74.90
20066;DHT22;10193;48.884;9.182;2024-03-23T12:16:25;10.00;74.40
20066;DHT22;10193;48.884;9.182;2024-03-23T12:19:04;10.00;74.00
20066;DHT22;10193;48.884;9.182;2024-03-23T12:21:31;10.10;72.70
20066;DHT22;10193;48.884;9.182;2024-03-23T12:23:57;10.10;73.00
20066;DHT22;10193;48.884;9.182;2024-03-23T12:26:24;10.20;73.30
20066;DHT22;10193;48.884;9.182;2024-03-23T12:28:50;10.20;73.70
20066;DHT22;10193;48.884;9.182;2024-03-23T12:31:16;10.30;74.40
20066;DHT22;10193;48.884;9.182;2024-03-23T12:33:43;10.40;73.80
20066;DHT22;10193;48.884;9.182;2024-03-23T12:36:11;10.50;74.00
20066;DHT22;10193;48.884;9.182;2024-03-23T12:38:38;10.60;73.80
20066;DHT22;10193;48.884;9.182;2024-03-23T12:41:03;10.70;73.40
20066;DHT22;10193;48.884;9.182;2024-03-23T12:43:30;10.80;73.10
20066;DHT22;10193;48.884;9.182;2024-03-23T12:45:56;10.90;73.10
20066;DHT22;10193;48.884;9.182;2024-03-23T12:48:23;10.90;73.30
20066;DHT22;10193;48.884;9.182;2024-03-23T12:50:48;11.00;73.70
20066;DHT22;10193;48.884;9.182;2024-03-23T12:53:16;11.20;73.90
20066;DHT22;10193;48.884;9.182;2024-03-23T12:55:42;11.20;73.70
20066;DHT22;10193;48.884;9.182;2024-03-23T12:58:09;11.40;73.70
20066;DHT22;10193;48.884;9.182;2024-03-23T13:00:34;11.50;73.90
20066;DHT22;10193;48.884;9.182;2024-03-23T13:03:01;11.60;73.70
20066;DHT22;10193;48.884;9.182;2024-03-23T13:05:27;11.60;73.30
20066;DHT22;10193;48.884;9.182;2024-03-23T13:07:53;11.80;72.90
20066;DHT22;10193;48.884;9.182;2024-03-23T13:10:20;11.80;71.90
20066;DHT22;10193;48.884;9.182;2024-03-23T13:12:47;11.90;71.30
20066;DHT22;10193;48.884;9.182;2024-03-23T13:15:13;11.90;70.80
20066;DHT22;10193;48.884;9.182;2024-03-23T13:17:42;11.80;70.40
20066;DHT22;10193;48.884;9.182;2024-03-23T13:20:08;11.80;70.30
20066;DHT22;10193;48.884;9.182;2024-03-23T13:22:38;11.80;70.60
20066;DHT22;10193;48.884;9.182;2024-03-23T13:25:05;11.80;70.80
20066;DHT22;10193;48.884;9.182;2024-03-23T13:27:33;11.80;71.00
20066;DHT22;10193;48.884;9.182;2024-03-23T13:29:59;11.90;71.50
20066;DHT22;10193;48.884;9.182;2024-03-23T13:32:25;11.90;71.90
20066;DHT22;10193;48.884;9.182;2024-03-23T13:34:51;12.00;71.90
20066;DHT22;10193;48.884;9.182;2024-03-23T13:37:18;12.10;72.00
20066;DHT22;10193;48.884;9.182;2024-03-23T13:39:43;12.20;72.10
20066;DHT22;10193;48.884;9.182;2024-03-23T13:42:10;12.30;72.40
20066;DHT22;10193;48.884;9.182;2024-03-23T13:44:39;12.40;72.80
20066;DHT22;10193;48.884;9.182;2024-03-23T13:47:05;12.50;72.50
20066;DHT22;10193;48.884;9.182;2024-03-23T13:49:31;12.70;72.30
20066;DHT22;10193;48.884;9.182;2024-03-23T13:51:59;12.80;72.20
20066;DHT22;10193;48.884;9.182;2024-03-23T13:54:25;12.90;71.70
20066;DHT22;10193;48.884;9.182;2024-03-23T13:56:52;12.90;65.10
20066;DHT22;10193;48.884;9.182;2024-03-23T13:59:18;12.70;60.40
20066;DHT22;10193;48.884;9.182;2024-03-23T14:01:47;12.30;59.20
20066;DHT22;10193;48.884;9.182;2024-03-23T14:04:13;11.70;59.20
20066;DHT22;10193;48.884;9.182;2024-03-23T14:06:42;11.20;60.00
20066;DHT22;10193;48.884;9.182;2024-03-23T14:09:07;10.70;60.90
20066;DHT22;10193;48.884;9.182;2024-03-23T14:11:35;10.20;61.70
20066;DHT22;10193;48.884;9.182;2024-03-23T14:14:01;9.80;63.90
20066;DHT22;10193;48.884;9.182;2024-03-23T14:16:28;9.40;65.00
20066;DHT22;10193;48.884;9.182;2024-03-23T14:18:55;9.10;66.60
20066;DHT22;10193;48.884;9.182;2024-03-23T14:21:22;8.90;67.80
20066;DHT22;10193;48.884;9.182;2024-03-23T14:23:48;8.70;68.90
20066;DHT22;10193;48.884;9.182;2024-03-23T14:26:15;8.60;70.10
20066;DHT22;10193;48.884;9.182;2024-03-23T14:28:40;8.50;70.90
20066;DHT22;10193;48.884;9.182;2024-03-23T14:31:07;8.50;71.60
20066;DHT22;10193;48.884;9.182;2024-03-23T14:33:36;8.50;72.40
20066;DHT22;10193;48.884;9.182;2024-03-23T14:36:05;8.50;73.10
20066;DHT22;10193;48.884;9.182;2024-03-23T14:38:31;8.40;73.90
20066;DHT22;10193;48.884;9.182;2024-03-23T14:40:58;8.50;74.50
20066;DHT22;10193;48.884;9.182;2024-03-23T14:43:24;8.60;75.00
20066;DHT22;10193;48.884;9.182;2024-03-23T14:46:10;8.60;75.20
20066;DHT22;10193;48.884;9.182;2024-03-23T14:48:36;8.70;75.30
20066;DHT22;10193;48.884;9.182;2024-03-23T14:51:05;8.80;75.60
20066;DHT22;10193;48.884;9.182;2024-03-23T14:53:32;8.80;76.00
20066;DHT22;10193;48.884;9.182;2024-03-23T14:55:59;8.90;76.10
20066;DHT22;10193;48.884;9.182;2024-03-23T14:58:25;9.00;76.10
20066;DHT22;10193;48.884;9.182;2024-03-23T15:00:52;9.00;75.90
20066;DHT22;10193;48.884;9.182;2024-03-23T15:03:18;9.10;75.80
20066;DHT22;10193;48.884;9.182;2024-03-23T15:05:52;9.20;75.90
20066;DHT22;10193;48.884;9.182;2024-03-23T15:08:19;9.20;75.80
20066;DHT22;10193;48.884;9.182;2024-03-23T15:10:46;9.20;76.10
20066;DHT22;10193;48.884;9.182;2024-03-23T15:13:11;9.30;76.40
20066;DHT22;10193;48.884;9.182;2024-03-23T15:15:38;9.30;76.50
20066;DHT22;10193;48.884;9.182;2024-03-23T15:18:06;9.40;76.60
20066;DHT22;10193;48.884;9.182;2024-03-23T15:20:32;9.50;76.80
20066;DHT22;10193;48.884;9.182;2024-03-23T15:23:01;9.60;76.90
20066;DHT22;10193;48.884;9.182;2024-03-23T15:25:29;9.60;76.70
20066;DHT22;10193;48.884;9.182;2024-03-23T15:27:54;9.70;76.20
20066;DHT22;10193;48.884;9.182;2024-03-23T15:30:21;9.70;75.90
20066;DHT22;10193;48.884;9.182;2024-03-23T15:32:47;9.80;75.90
20066;DHT22;10193;48.884;9.182;2024-03-23T15:35:13;9.80;75.60
20066;DHT22;10193;48.884;9.182;2024-03-23T15:37:39;9.90;75.40
20066;DHT22;10193;48.884;9.182;2024-03-23T15:40:07;9.90;75.20
20066;DHT22;10193;48.884;9.182;2024-03-23T15:42:36;9.90;75.10
20066;DHT22;10193;48.884;9.182;2024-03-23T15:45:06;9.90;74.90
20066;DHT22;10193;48.884;9.182;2024-03-23T15:47:32;9.90;74.90
20066;DHT22;10193;48.884;9.182;2024-03-23T15:49:59;9.90;75.00
20066;DHT22;10193;48.884;9.182;2024-03-23T15:52:25;9.90;75.00
20066;DHT22;10193;48.884;9.182;2024-03-23T15:54:51;9.80;74.80
20066;DHT22;10193;48.884;9.182;2024-03-23T15:57:18;9.80;74.70
20066;DHT22;10193;48.884;9.182;2024-03-23T15:59:45;9.80;74.70
20066;DHT22;10193;48.884;9.182;2024-03-23T16:02:11;9.80;75.00
20066;DHT22;10193;48.884;9.182;2024-03-23T16:04:38;9.80;75.30
20066;DHT22;10193;48.884;9.182;2024-03-23T16:07:03;9.80;75.50
20066;DHT22;10193;48.884;9.182;2024-03-23T16:09:30;9.80;75.50
20066;DHT22;10193;48.884;9.182;2024-03-23T16:11:56;9.90;75.60
20066;DHT22;10193;48.884;9.182;2024-03-23T16:14:22;9.90;75.50
20066;DHT22;10193;48.884;9.182;2024-03-23T16:16:49;9.90;75.30
20066;DHT22;10193;48.884;9.182;2024-03-23T16:19:16;9.90;75.20
20066;DHT22;10193;48.884;9.182;2024-03-23T16:21:42;9.90;75.10
20066;DHT22;10193;48.884;9.182;2024-03-23T16:24:08;10.00;74.00
20066;DHT22;10193;48.884;9.182;2024-03-23T16:26:34;10.00;73.80
20066;DHT22;10193;48.884;9.182;2024-03-23T16:29:01;10.00;73.80